Hlavní strana
METAR-TAF:

METAR-TAF

Letiště :

Augusta, Georgie, Spojené státy americké

zeměpisná šířka: 33-21-52N, zeměpisná délka: 081-57-48W, výška: 44 m

Aktuální stav počasí

Zpráva byla vytvořena před 22 minutami, v 17:06 UTC
Severní vítr 9 kt
Teplota 11°C
Vlhkost vzduchu 87%
Tlak 1018 hPa
Viditelnost: 6.4 km
Zataženo ve výšce 700 ft
slabý déšť, kouřmo

METAR: KAGS 151706Z 01009KT 4SM -RA BR OVC007 11/09 A3007 RMK AO2 CIG 005V010 P0000 T01060089

Čas: 12:28 (17:28 UTC)

Předpověď počasí

Zpráva byla vytvořena před 1 hodinou a 43 minutami, v 15:45 UTC
Předpověď platná od 15 v 16 UTC do 16 v 12 UTC
Severoseverovýchodní vítr 9 kt
Viditelnost: 3.2 km
Zataženo ve výšce 900 ft
slabý déšť, kouřmo
Od 16 v 0000 UTC
Severoseverovýchodní vítr 9 kt s nárazy do 16 kt
Viditelnost: 9.7 km
Zataženo ve výšce 700 ft
slabý déšť, kouřmo

TAF: KAGS 151545Z 1516/1612 02009KT 2SM -RA BR OVC009 WS020/04040KT FM160000 02009G16KT 6SM -RA BR OVC007 WS020/03038KT

Stav a předpovědi počasí z více než 4 000 letišť (zprávy METAR a TAF).

Červené a žluté tečky na mapě představují dostupné meteorologické stanice.

Když kurzor umístíte na tečku, zobrazí se název stanice.

Pak kliknutím zobrazíte stav a předpověď počasí.

Chcete-li změnit mapu, kliknutím na zelené tlačítko se znaménkem +mapu přiblížíte, kliknutím na zelené tlačítko se znaménkem – mapu oddálíte a kliknutím na zelené šipky přejdete na sousední mapy.


METAR-TAF: